Time;durP1;ratioP1;P1;durP2;ratioP2;P2;SDS_P1;SDS_P2;PMS_P1;PMS_P2;Temp;Humidity;BMP_temperature;BMP_pressure;BME280_temperature;BME280_humidity;BME280_pressure;Samples;Min_cycle;Max_cycle;Signal;HPM_P1;HPM_P2
2022/03/03 00:02:05;;;;;;;23.05;20.55;;;-2.30;99.90;;;;;;4971068;28;20034;-77
2022/03/03 00:04:30;;;;;;;23.40;20.85;;;-2.40;99.90;;;;;;4972588;28;20049;-75
2022/03/03 00:06:56;;;;;;;27.27;19.58;;;-2.30;99.90;;;;;;4971143;28;20097;-76
2022/03/03 00:09:22;;;;;;;24.58;21.02;;;-2.30;99.90;;;;;;4972504;28;20114;-76
2022/03/03 00:11:47;;;;;;;26.50;22.35;;;-2.40;99.90;;;;;;4987224;28;20022;-76
2022/03/03 00:14:13;;;;;;;29.05;23.13;;;-2.40;99.90;;;;;;4976409;28;20034;-76
2022/03/03 00:16:38;;;;;;;30.17;23.70;;;-2.40;99.90;;;;;;4990629;28;20030;-76
2022/03/03 00:19:04;;;;;;;30.92;21.02;;;-2.40;99.90;;;;;;4974732;28;20034;-76
2022/03/03 00:21:30;;;;;;;28.40;24.58;;;-2.50;99.90;;;;;;4974729;28;20062;-76
2022/03/03 00:23:55;;;;;;;25.27;22.08;;;-2.50;99.90;;;;;;4976059;28;20074;-75
2022/03/03 00:26:21;;;;;;;25.38;21.65;;;-2.50;99.90;;;;;;4976042;28;20085;-76
2022/03/03 00:28:46;;;;;;;27.88;22.95;;;-2.50;99.90;;;;;;4975813;28;20046;-75
2022/03/03 00:31:12;;;;;;;25.58;21.85;;;-2.50;99.90;;;;;;4974485;28;20019;-75
2022/03/03 00:33:38;;;;;;;27.65;22.55;;;-2.50;99.90;;;;;;4975944;28;20448;-75
2022/03/03 00:36:03;;;;;;;27.23;22.00;;;-2.40;99.90;;;;;;4975757;28;20030;-75
2022/03/03 00:38:29;;;;;;;27.10;22.75;;;-2.40;99.90;;;;;;4979760;28;20477;-75
2022/03/03 00:40:54;;;;;;;29.52;20.05;;;-2.40;99.90;;;;;;4976138;28;20046;-75
2022/03/03 00:43:20;;;;;;;32.10;21.10;;;-2.50;99.90;;;;;;4975792;28;20039;-75
2022/03/03 00:45:45;;;;;;;27.83;22.42;;;-2.60;99.90;;;;;;4974443;28;20019;-75
2022/03/03 00:48:11;;;;;;;24.52;21.48;;;-2.70;99.90;;;;;;4975611;28;20515;-74
2022/03/03 00:50:37;;;;;;;28.25;22.45;;;-2.70;99.90;;;;;;4974103;28;20027;-76
2022/03/03 00:53:03;;;;;;;27.25;23.63;;;-2.70;99.90;;;;;;4976118;28;20027;-76
2022/03/03 00:55:29;;;;;;;26.42;22.58;;;-2.80;99.90;;;;;;4975863;28;20022;-76
2022/03/03 00:57:54;;;;;;;28.00;23.27;;;-2.80;99.90;;;;;;4975692;28;20019;-76
2022/03/03 01:00:20;;;;;;;25.90;21.52;;;-2.80;99.90;;;;;;4974246;28;20033;-75
2022/03/03 01:02:47;;;;;;;28.63;22.70;;;-2.90;99.90;;;;;;4975669;28;20086;-76
2022/03/03 01:05:12;;;;;;;27.15;22.80;;;-3.00;99.90;;;;;;4975637;28;20046;-76
2022/03/03 01:07:38;;;;;;;31.42;22.65;;;-2.90;99.90;;;;;;4975344;28;20062;-75
2022/03/03 01:10:06;;;;;;;31.55;20.08;;;-2.90;99.90;;;;;;4975143;28;20158;-74
2022/03/03 01:12:31;;;;;;;26.27;22.38;;;-3.00;99.90;;;;;;4975004;28;20023;-75
2022/03/03 01:14:57;;;;;;;27.27;23.08;;;-3.10;99.90;;;;;;4975329;28;20021;-75
2022/03/03 01:17:23;;;;;;;25.77;22.05;;;-3.10;99.90;;;;;;4975009;28;20062;-75
2022/03/03 01:19:48;;;;;;;26.00;23.15;;;-3.20;99.90;;;;;;4973859;28;20023;-75
2022/03/03 01:22:16;;;;;;;25.80;23.02;;;-3.20;99.90;;;;;;4974855;28;20030;-73
2022/03/03 01:24:42;;;;;;;26.27;22.20;;;-3.30;99.90;;;;;;4974059;28;20034;-75
2022/03/03 01:27:07;;;;;;;26.13;22.73;;;-3.30;99.90;;;;;;4976866;28;20027;-75
2022/03/03 01:29:33;;;;;;;27.65;22.95;;;-3.20;99.90;;;;;;4981412;28;20027;-75
2022/03/03 01:31:58;;;;;;;26.50;22.50;;;-3.20;99.90;;;;;;4977082;28;20033;-75
2022/03/03 01:34:24;;;;;;;25.80;22.73;;;-3.10;99.90;;;;;;4974859;28;20023;-75
2022/03/03 01:36:50;;;;;;;27.65;22.92;;;-2.80;99.90;;;;;;4974643;28;20385;-74
2022/03/03 01:39:15;;;;;;;26.95;22.80;;;-3.00;99.90;;;;;;4974883;28;20030;-74
2022/03/03 01:41:41;;;;;;;25.63;22.58;;;-3.10;99.90;;;;;;4974702;28;20038;-75
2022/03/03 01:44:08;;;;;;;27.25;22.95;;;-3.10;99.90;;;;;;4961903;28;20023;-75
2022/03/03 01:46:34;;;;;;;26.30;22.27;;;-3.30;99.90;;;;;;4965729;28;20033;-75
2022/03/03 01:49:00;;;;;;;25.92;22.25;;;-3.20;99.90;;;;;;4968055;28;20048;-75
2022/03/03 01:51:26;;;;;;;26.52;22.52;;;-3.20;99.90;;;;;;4963310;28;20513;-76
2022/03/03 01:53:52;;;;;;;29.15;22.85;;;-3.30;99.90;;;;;;4961600;28;20410;-75
2022/03/03 01:56:18;;;;;;;26.25;21.95;;;-3.20;99.90;;;;;;4966057;28;20034;-76
2022/03/03 01:58:44;;;;;;;25.83;21.58;;;-3.30;99.90;;;;;;4968135;28;20034;-76
2022/03/03 02:01:10;;;;;;;26.63;22.98;;;-3.40;99.90;;;;;;4963841;28;20031;-76
2022/03/03 02:03:36;;;;;;;25.70;22.90;;;-3.40;99.90;;;;;;4972123;28;20038;-76
2022/03/03 02:06:02;;;;;;;26.38;23.48;;;-3.50;99.90;;;;;;4963827;28;20026;-75
2022/03/03 02:08:28;;;;;;;28.55;19.15;;;-3.70;99.90;;;;;;4961056;28;20067;-76
2022/03/03 02:10:54;;;;;;;33.80;20.25;;;-3.90;99.90;;;;;;4965338;28;20102;-76
2022/03/03 02:13:20;;;;;;;32.83;20.80;;;-3.90;99.90;;;;;;4967844;28;20023;-76
2022/03/03 02:15:54;;;;;;;28.30;24.38;;;-3.90;99.90;;;;;;4953600;28;20031;-75
2022/03/03 02:18:20;;;;;;;30.10;25.85;;;-4.00;99.90;;;;;;4967819;28;20031;-76
2022/03/03 02:20:46;;;;;;;29.58;25.52;;;-4.10;99.90;;;;;;4964397;28;20034;-75
2022/03/03 02:23:12;;;;;;;33.78;20.63;;;-4.20;99.90;;;;;;4956571;28;20023;-75
2022/03/03 02:25:38;;;;;;;31.83;20.88;;;-4.20;99.90;;;;;;4967659;28;20062;-75
2022/03/03 02:28:04;;;;;;;28.58;25.10;;;-4.20;99.90;;;;;;4970482;28;20042;-74
2022/03/03 02:30:29;;;;;;;30.08;25.00;;;-3.90;99.90;;;;;;4964182;28;20031;-74
2022/03/03 02:32:56;;;;;;;30.58;19.33;;;-3.90;99.90;;;;;;4960949;28;20033;-74
2022/03/03 02:35:21;;;;;;;29.38;19.98;;;-3.90;99.90;;;;;;4979639;28;20027;-74
2022/03/03 02:37:47;;;;;;;26.25;23.40;;;-3.90;99.90;;;;;;4988694;28;20027;-74
2022/03/03 02:40:20;;;;;;;30.25;19.70;;;-3.80;99.90;;;;;;4973194;28;20037;-74
2022/03/03 02:42:46;;;;;;;27.15;23.88;;;-3.80;99.90;;;;;;4973543;28;20027;-74
2022/03/03 02:45:12;;;;;;;32.58;19.25;;;-3.80;99.90;;;;;;4973552;28;20035;-74
2022/03/03 02:47:42;;;;;;;33.25;19.50;;;-3.80;99.90;;;;;;4973435;28;20027;-74
2022/03/03 02:50:09;;;;;;;27.73;18.77;;;-3.80;99.90;;;;;;4972083;28;20035;-74
2022/03/03 02:52:35;;;;;;;29.25;18.88;;;-3.70;99.90;;;;;;4960355;28;20085;-74
2022/03/03 02:55:00;;;;;;;27.65;18.20;;;-3.80;99.90;;;;;;4973438;28;20027;-74
2022/03/03 03:00:11;;;;;;;28.88;18.95;;;-4.00;99.90;;;;;;4960280;28;20081;-72
2022/03/03 03:02:36;;;;;;;25.08;21.52;;;-3.90;99.90;;;;;;4971826;28;20031;-76
2022/03/03 03:05:02;;;;;;;31.73;19.70;;;-3.90;99.90;;;;;;4973162;28;20031;-75
2022/03/03 03:07:27;;;;;;;31.25;19.98;;;-3.90;99.90;;;;;;4973080;28;20034;-75
2022/03/03 03:09:53;;;;;;;26.73;18.33;;;-4.10;99.90;;;;;;4973009;28;20034;-75
2022/03/03 03:12:19;;;;;;;25.42;22.15;;;-4.20;99.90;;;;;;4979027;28;20018;-75
2022/03/03 03:14:44;;;;;;;25.75;22.70;;;-4.10;99.90;;;;;;4978858;28;20461;-74
2022/03/03 03:17:10;;;;;;;28.27;18.27;;;-4.00;99.90;;;;;;4972953;28;20777;-75
2022/03/03 03:19:35;;;;;;;31.58;19.80;;;-4.00;99.90;;;;;;4971797;28;20027;-75
2022/03/03 03:22:02;;;;;;;29.98;19.40;;;-4.10;99.90;;;;;;4972875;28;20039;-75
2022/03/03 03:24:27;;;;;;;30.02;20.42;;;-4.10;99.90;;;;;;4971634;28;20033;-73
2022/03/03 03:26:53;;;;;;;26.95;23.30;;;-4.20;99.90;;;;;;4973033;28;20031;-76
2022/03/03 03:29:18;;;;;;;30.00;24.80;;;-4.30;99.90;;;;;;4973652;28;20392;-76
2022/03/03 03:31:44;;;;;;;33.60;20.48;;;-4.40;99.90;;;;;;4983926;28;20089;-76
2022/03/03 03:34:09;;;;;;;35.17;21.83;;;-4.70;99.90;;;;;;4972450;28;20055;-76
2022/03/03 03:36:35;;;;;;;32.10;26.13;;;-5.00;99.90;;;;;;4959466;28;20027;-75
2022/03/03 03:39:00;;;;;;;38.00;21.58;;;-5.20;99.90;;;;;;4959888;28;20038;-75
2022/03/03 03:41:26;;;;;;;30.90;21.45;;;-5.10;99.90;;;;;;4971675;28;20090;-75
2022/03/03 03:43:52;;;;;;;29.77;20.63;;;-4.80;99.90;;;;;;4972773;28;20073;-75
2022/03/03 03:46:17;;;;;;;35.33;21.65;;;-4.80;99.90;;;;;;4964768;28;20560;-75
2022/03/03 03:48:43;;;;;;;32.75;21.38;;;-4.80;99.90;;;;;;4969999;28;20081;-74
2022/03/03 03:51:08;;;;;;;32.53;22.45;;;-4.70;99.90;;;;;;4975173;28;20495;-73
2022/03/03 03:53:34;;;;;;;37.72;21.40;;;-4.50;99.90;;;;;;4976432;28;20369;-72
2022/03/03 03:55:59;;;;;;;36.60;21.75;;;-4.60;99.90;;;;;;4962935;28;20027;-72
2022/03/03 03:58:25;;;;;;;32.90;21.55;;;-4.60;99.90;;;;;;4962420;28;20019;-73
2022/03/03 04:00:51;;;;;;;38.42;22.17;;;-4.70;99.90;;;;;;4969932;28;20039;-75
2022/03/03 04:03:16;;;;;;;34.67;21.92;;;-4.70;99.90;;;;;;4969035;28;20034;-75
2022/03/03 04:05:42;;;;;;;32.85;21.05;;;-4.90;99.90;;;;;;4963799;28;20114;-74
2022/03/03 04:08:07;;;;;;;32.53;21.35;;;-4.80;99.90;;;;;;4963346;28;20031;-75
2022/03/03 04:10:33;;;;;;;33.63;21.88;;;-4.80;99.90;;;;;;4988225;28;20436;-74
2022/03/03 04:12:58;;;;;;;33.97;22.63;;;-4.80;99.90;;;;;;4976310;28;20489;-75
2022/03/03 04:15:24;;;;;;;31.45;27.08;;;-4.70;99.90;;;;;;4963398;28;20414;-73
2022/03/03 04:17:50;;;;;;;34.95;22.15;;;-4.70;99.90;;;;;;4962064;28;20082;-74
2022/03/03 04:20:18;;;;;;;37.00;22.65;;;-4.70;99.90;;;;;;4975979;28;20027;-73
2022/03/03 04:22:43;;;;;;;37.28;23.67;;;-4.40;99.90;;;;;;4976144;28;20023;-73
2022/03/03 04:25:10;;;;;;;36.42;24.10;;;-4.40;99.90;;;;;;4976092;28;20030;-73
2022/03/03 04:27:37;;;;;;;41.17;26.73;;;-4.40;99.90;;;;;;4976101;28;20381;-74
2022/03/03 04:30:05;;;;;;;41.22;25.63;;;-4.40;99.90;;;;;;4962658;28;20027;-73
2022/03/03 04:32:30;;;;;;;36.97;23.35;;;-4.40;99.90;;;;;;4975744;28;20101;-73
2022/03/03 04:34:56;;;;;;;39.65;23.83;;;-4.50;99.90;;;;;;4976027;28;20370;-73
2022/03/03 04:37:21;;;;;;;34.67;23.35;;;-4.60;99.90;;;;;;4988574;28;20069;-73
2022/03/03 04:39:47;;;;;;;37.17;23.60;;;-4.50;99.90;;;;;;4975029;28;20037;-72
2022/03/03 04:42:12;;;;;;;31.23;27.73;;;-4.30;99.90;;;;;;4975723;28;20026;-72
2022/03/03 04:44:38;;;;;;;34.75;22.33;;;-4.40;99.90;;;;;;4981424;28;20030;-72
2022/03/03 04:47:04;;;;;;;36.70;23.95;;;-4.50;99.90;;;;;;4981651;28;20512;-72
2022/03/03 04:49:29;;;;;;;39.05;23.88;;;-4.50;99.90;;;;;;4988462;28;20037;-71
2022/03/03 04:51:55;;;;;;;40.78;23.25;;;-4.40;99.90;;;;;;4975022;28;20030;-71
2022/03/03 04:54:21;;;;;;;38.15;23.10;;;-4.40;99.90;;;;;;4974101;28;20058;-72
2022/03/03 04:56:46;;;;;;;40.30;24.02;;;-4.20;99.90;;;;;;4963593;28;20481;-73
2022/03/03 04:59:12;;;;;;;37.47;23.10;;;-4.20;99.90;;;;;;4977632;28;20022;-73
2022/03/03 05:01:38;;;;;;;32.17;21.88;;;-4.30;99.90;;;;;;4982992;28;20062;-72
2022/03/03 05:04:03;;;;;;;34.90;22.83;;;-4.30;99.90;;;;;;4973983;28;20025;-73
2022/03/03 05:06:29;;;;;;;36.78;23.05;;;-4.30;99.90;;;;;;4973984;28;20027;-73
2022/03/03 05:08:54;;;;;;;33.63;22.75;;;-4.40;99.90;;;;;;4975154;28;20030;-73
2022/03/03 05:11:20;;;;;;;35.25;23.83;;;-4.30;99.90;;;;;;4974935;28;20034;-73
2022/03/03 05:13:47;;;;;;;39.65;24.05;;;-4.40;99.90;;;;;;4962090;28;20022;-74
2022/03/03 05:16:12;;;;;;;41.08;25.50;;;-4.40;99.90;;;;;;4963676;28;20478;-74
2022/03/03 05:18:38;;;;;;;38.83;24.85;;;-4.40;99.90;;;;;;4985519;28;20062;-73
2022/03/03 05:21:04;;;;;;;36.28;29.30;;;-4.40;99.90;;;;;;4974782;28;20062;-73
2022/03/03 05:23:29;;;;;;;35.80;23.73;;;-4.50;99.90;;;;;;4970661;28;20058;-73
2022/03/03 05:25:55;;;;;;;38.95;23.73;;;-4.50;99.90;;;;;;4955764;28;20457;-73
2022/03/03 05:28:20;;;;;;;35.97;23.25;;;-4.50;99.90;;;;;;4961229;28;20038;-73
2022/03/03 05:30:46;;;;;;;38.78;23.92;;;-4.60;99.90;;;;;;4974972;28;20137;-73
2022/03/03 05:33:11;;;;;;;34.20;23.23;;;-4.50;99.90;;;;;;4956006;28;20508;-74
2022/03/03 05:35:39;;;;;;;39.67;23.23;;;-4.60;99.90;;;;;;4968018;28;20129;-75
2022/03/03 05:38:04;;;;;;;41.05;24.88;;;-4.60;99.90;;;;;;4961618;28;20033;-74
2022/03/03 05:40:31;;;;;;;35.15;23.85;;;-4.60;99.90;;;;;;4962055;28;20102;-74
2022/03/03 05:42:57;;;;;;;36.25;24.17;;;-4.70;99.90;;;;;;4967008;28;20086;-72
2022/03/03 05:45:23;;;;;;;39.42;24.30;;;-4.70;99.90;;;;;;4955595;28;20035;-72
2022/03/03 05:47:49;;;;;;;39.55;23.90;;;-4.80;99.90;;;;;;4967792;28;20034;-72
2022/03/03 05:50:15;;;;;;;34.00;27.88;;;-4.80;99.90;;;;;;4968493;28;20560;-69
2022/03/03 05:52:41;;;;;;;40.80;23.42;;;-4.80;99.90;;;;;;4974609;28;20023;-71
2022/03/03 05:55:07;;;;;;;35.92;30.15;;;-4.70;99.90;;;;;;4974982;28;20026;-71
2022/03/03 05:57:43;;;;;;;40.20;23.95;;;-4.60;99.90;;;;;;4986576;28;20065;-72
2022/03/03 06:00:12;;;;;;;;;;;-4.80;99.90;;;;;;4975036;28;20026;-72
2022/03/03 06:02:38;;;;;;;41.75;24.55;;;-4.70;99.90;;;;;;4974230;28;19906;-72
2022/03/03 06:05:06;;;;;;;39.63;24.58;;;-4.70;99.90;;;;;;4972081;28;20034;-74
2022/03/03 06:07:34;;;;;;;41.72;24.35;;;-4.70;99.90;;;;;;4963765;28;20114;-74
2022/03/03 06:10:02;;;;;;;39.17;24.00;;;-4.70;99.90;;;;;;4962916;28;20505;-74
2022/03/03 06:12:45;;;;;;;40.47;24.77;;;-4.70;99.90;;;;;;4982969;28;20389;-75
2022/03/03 06:15:13;;;;;;;35.83;23.92;;;-4.70;99.90;;;;;;4969293;28;20024;-74
2022/03/03 06:17:44;;;;;;;40.33;24.33;;;-4.80;99.90;;;;;;4966329;28;20039;-75
2022/03/03 06:20:10;;;;;;;37.22;22.92;;;-4.80;99.90;;;;;;4961268;28;20027;-74
2022/03/03 06:22:36;;;;;;;38.80;23.77;;;-4.70;99.90;;;;;;4960076;28;20032;-74
2022/03/03 06:25:01;;;;;;;40.40;23.77;;;-4.80;99.90;;;;;;4972325;28;20046;-74
2022/03/03 06:27:29;;;;;;;33.95;27.65;;;-4.80;99.90;;;;;;4973893;28;20026;-75
2022/03/03 06:29:55;;;;;;;33.40;27.08;;;-4.70;99.90;;;;;;4968221;28;20118;-76
2022/03/03 06:32:21;;;;;;;36.72;23.02;;;-4.60;99.90;;;;;;4966517;28;20030;-76
2022/03/03 06:34:46;;;;;;;38.47;24.35;;;-4.50;99.90;;;;;;4959666;28;20030;-75
2022/03/03 06:37:12;;;;;;;38.97;25.30;;;-4.50;99.90;;;;;;4960139;28;20397;-75
2022/03/03 06:39:37;;;;;;;33.60;23.88;;;-4.50;99.90;;;;;;4973363;28;20097;-74
2022/03/03 06:42:03;;;;;;;37.40;22.77;;;-4.50;99.90;;;;;;4974611;28;20105;-74
2022/03/03 06:44:29;;;;;;;36.45;23.13;;;-4.40;99.90;;;;;;4973711;28;20186;-74
2022/03/03 06:46:55;;;;;;;36.33;24.27;;;-4.10;99.90;;;;;;4961276;28;20539;-74
2022/03/03 06:49:21;;;;;;;36.88;23.55;;;-4.00;99.90;;;;;;4959905;28;20041;-73
2022/03/03 06:51:48;;;;;;;37.20;24.30;;;-3.90;99.90;;;;;;4973637;28;20037;-74
2022/03/03 06:54:19;;;;;;;39.05;23.70;;;-4.00;99.90;;;;;;4967994;28;20470;-74
2022/03/03 06:56:56;;;;;;;38.13;24.83;;;-4.00;99.90;;;;;;4953996;28;20031;-74
2022/03/03 06:59:24;;;;;;;37.90;23.90;;;-3.90;99.90;;;;;;4964447;28;20034;-74
2022/03/03 07:01:51;;;;;;;35.70;22.73;;;-3.90;99.90;;;;;;4991337;28;20034;-74
2022/03/03 07:04:18;;;;;;;35.47;22.75;;;-3.80;99.90;;;;;;4972083;28;20030;-74
2022/03/03 07:06:46;;;;;;;36.15;23.95;;;-3.70;99.90;;;;;;4973264;28;20500;-73
2022/03/03 07:09:12;;;;;;;34.38;23.13;;;-3.50;99.90;;;;;;4971850;28;20093;-74
2022/03/03 07:11:41;;;;;;;31.88;26.85;;;-3.40;99.90;;;;;;4958532;28;20034;-75
2022/03/03 07:14:06;;;;;;;31.98;27.20;;;-3.30;99.90;;;;;;4962363;28;20034;-75
2022/03/03 07:16:40;;;;;;;38.05;24.65;;;-3.10;99.90;;;;;;4973116;28;20381;-74
2022/03/03 07:19:24;;;;;;;33.85;23.67;;;-3.10;99.90;;;;;;4962322;28;20085;-75
2022/03/03 07:22:07;;;;;;;34.67;22.58;;;-3.00;99.90;;;;;;4965480;28;20105;-76
2022/03/03 07:24:37;;;;;;;37.42;23.85;;;-3.00;99.90;;;;;;4967723;28;20235;-75
2022/03/03 07:27:04;;;;;;;33.28;22.42;;;-3.00;99.90;;;;;;4973033;28;20026;-75
2022/03/03 07:29:32;;;;;;;37.53;24.00;;;-2.90;99.90;;;;;;4958668;28;20031;-75
2022/03/03 07:32:03;;;;;;;32.90;25.83;;;-2.80;99.90;;;;;;4964034;28;20023;-75
2022/03/03 07:34:37;;;;;;;34.45;21.63;;;-2.70;99.90;;;;;;4966659;28;20389;-75
2022/03/03 07:37:11;;;;;;;29.08;23.58;;;-2.60;99.90;;;;;;4963124;28;20495;-75
2022/03/03 07:39:42;;;;;;;28.00;23.50;;;-2.60;99.90;;;;;;4958849;28;20441;-75
2022/03/03 07:42:17;;;;;;;28.33;23.00;;;-2.50;99.90;;;;;;4984278;28;20028;-75
2022/03/03 07:44:43;;;;;;;26.05;23.10;;;-2.40;99.90;;;;;;4960802;28;20081;-75
2022/03/03 07:47:09;;;;;;;26.50;22.83;;;-2.30;99.90;;;;;;4972825;28;20031;-75
2022/03/03 07:49:35;;;;;;;26.10;22.48;;;-2.30;99.90;;;;;;4971521;28;20045;-76
2022/03/03 07:52:05;;;;;;;27.67;23.10;;;-2.20;99.90;;;;;;4967096;28;20027;-76
2022/03/03 07:54:31;;;;;;;26.10;23.23;;;-2.10;99.90;;;;;;4972830;28;20105;-75
2022/03/03 07:56:59;;;;;;;30.42;21.17;;;-2.10;99.90;;;;;;4959555;28;20019;-75
2022/03/03 07:59:34;;;;;;;28.15;23.92;;;-2.10;99.90;;;;;;4965491;28;20046;-76
2022/03/03 08:02:02;;;;;;;29.60;23.30;;;-2.10;99.90;;;;;;4964940;28;20034;-75
2022/03/03 08:04:29;;;;;;;27.98;23.10;;;-2.00;99.90;;;;;;4961061;28;20035;-75
2022/03/03 08:07:06;;;;;;;30.20;23.88;;;-2.00;99.90;;;;;;4958022;28;20026;-75
2022/03/03 08:09:34;;;;;;;29.05;23.85;;;-1.90;99.90;;;;;;4960799;28;20050;-74
2022/03/03 08:12:04;;;;;;;29.00;24.05;;;-1.80;99.90;;;;;;4964840;28;20118;-73
2022/03/03 08:14:31;;;;;;;28.70;24.35;;;-1.70;99.90;;;;;;4964895;28;20015;-73
2022/03/03 08:16:56;;;;;;;29.75;23.05;;;-1.60;99.90;;;;;;4958270;28;20054;-73
2022/03/03 08:19:22;;;;;;;27.73;22.85;;;-1.60;99.90;;;;;;4974468;28;20039;-74
2022/03/03 08:21:49;;;;;;;26.35;20.10;;;-1.50;99.90;;;;;;4974487;28;20114;-73
2022/03/03 08:24:14;;;;;;;27.00;21.52;;;-1.40;99.90;;;;;;4971213;28;20027;-75
2022/03/03 08:26:42;;;;;;;27.13;22.25;;;-1.40;99.90;;;;;;4972449;28;20050;-75
2022/03/03 08:29:09;;;;;;;26.88;23.33;;;-1.30;99.90;;;;;;4983049;28;20148;-75
2022/03/03 08:31:40;;;;;;;27.08;22.80;;;-1.20;99.90;;;;;;4973072;28;20123;-75
2022/03/03 08:34:45;;;;;;;29.58;23.77;;;-1.20;99.90;;;;;;4973690;28;20059;-75
2022/03/03 08:37:18;;;;;;;30.13;23.55;;;-1.10;99.90;;;;;;4971704;28;20122;-74
2022/03/03 08:39:45;;;;;;;29.73;23.55;;;-1.00;99.90;;;;;;4963242;28;20027;-74
2022/03/03 08:42:15;;;;;;;30.13;23.38;;;-0.90;99.90;;;;;;4975737;28;20106;-75
2022/03/03 08:44:43;;;;;;;30.17;24.55;;;-0.90;99.90;;;;;;4974638;28;20457;-75
2022/03/03 08:47:13;;;;;;;28.13;23.17;;;-0.70;99.90;;;;;;4976912;28;20038;-74
2022/03/03 08:49:43;;;;;;;26.17;21.92;;;-0.70;99.90;;;;;;4985690;28;20038;-73
2022/03/03 08:52:11;;;;;;;27.05;23.17;;;-0.60;99.90;;;;;;4974139;28;20030;-73
2022/03/03 08:54:36;;;;;;;28.10;22.35;;;-0.50;99.90;;;;;;4975553;28;20022;-73
2022/03/03 08:57:02;;;;;;;25.15;22.40;;;-0.40;99.90;;;;;;4986364;28;20026;-73
2022/03/03 08:59:28;;;;;;;29.17;21.83;;;-0.30;99.90;;;;;;4985425;28;20027;-72
2022/03/03 09:01:54;;;;;;;28.05;21.42;;;-0.20;99.90;;;;;;4986579;28;20032;-72
2022/03/03 09:04:20;;;;;;;26.42;20.67;;;-0.10;99.90;;;;;;4984060;28;20023;-72
2022/03/03 09:06:45;;;;;;;27.65;22.27;;;0.00;99.90;;;;;;4989103;28;20043;-72
2022/03/03 09:09:11;;;;;;;27.25;19.95;;;0.20;99.90;;;;;;4983611;28;20035;-72
2022/03/03 09:11:38;;;;;;;22.58;20.15;;;0.20;99.90;;;;;;4976483;28;20030;-72
2022/03/03 09:14:04;;;;;;;25.92;21.08;;;0.40;99.90;;;;;;4977763;28;20047;-72
2022/03/03 09:16:29;;;;;;;25.10;19.98;;;0.50;99.90;;;;;;4985067;28;20049;-72
2022/03/03 09:18:55;;;;;;;27.50;20.60;;;0.70;99.90;;;;;;4981238;28;20389;-72
2022/03/03 09:21:20;;;;;;;26.00;20.15;;;0.70;99.90;;;;;;4974583;28;20031;-69
2022/03/03 09:23:46;;;;;;;24.73;20.65;;;0.90;99.90;;;;;;4975015;28;20023;-72
2022/03/03 09:26:12;;;;;;;22.92;20.05;;;0.90;99.90;;;;;;4983858;28;20031;-73
2022/03/03 09:28:38;;;;;;;24.42;19.55;;;0.90;99.90;;;;;;4974893;28;20109;-71
2022/03/03 09:31:04;;;;;;;23.55;20.23;;;1.00;99.90;;;;;;4974635;28;20039;-73
2022/03/03 09:33:29;;;;;;;28.38;20.85;;;1.20;99.90;;;;;;4974814;28;20030;-73
2022/03/03 09:35:55;;;;;;;24.92;21.05;;;1.20;99.90;;;;;;4974786;28;20034;-74
2022/03/03 09:38:21;;;;;;;24.90;20.45;;;1.20;99.90;;;;;;4973446;28;20035;-73
2022/03/03 09:40:48;;;;;;;24.35;19.52;;;1.30;99.90;;;;;;4975402;28;20030;-73
2022/03/03 09:43:14;;;;;;;21.67;18.25;;;1.50;99.90;;;;;;4986545;28;20034;-73
2022/03/03 09:45:39;;;;;;;22.30;17.80;;;1.60;99.90;;;;;;4973565;28;20030;-73
2022/03/03 09:48:07;;;;;;;27.13;20.40;;;1.60;99.90;;;;;;4974666;28;20030;-73
2022/03/03 09:50:35;;;;;;;25.40;20.00;;;1.90;99.90;;;;;;4960281;28;20030;-73
2022/03/03 09:53:06;;;;;;;26.52;20.55;;;1.90;99.90;;;;;;4982195;28;20388;-73
2022/03/03 09:55:31;;;;;;;27.70;20.25;;;2.10;99.90;;;;;;4977341;28;20668;-73
2022/03/03 09:57:57;;;;;;;27.42;20.63;;;2.20;99.90;;;;;;4974420;28;20174;-73
2022/03/03 10:00:22;;;;;;;27.85;20.80;;;2.30;99.90;;;;;;4974859;28;20027;-73
2022/03/03 10:03:14;;;;;;;27.58;19.92;;;2.40;99.90;;;;;;4985511;28;20019;-73
2022/03/03 10:05:47;;;;;;;26.52;19.73;;;2.60;99.90;;;;;;4974344;28;20388;-72
2022/03/03 10:08:16;;;;;;;28.38;20.45;;;2.70;99.90;;;;;;4974269;28;20030;-73
2022/03/03 10:10:44;;;;;;;23.13;19.48;;;2.50;99.90;;;;;;4961292;28;20053;-72
2022/03/03 10:13:14;;;;;;;26.27;19.45;;;2.70;99.90;;;;;;4974117;28;20019;-73
2022/03/03 10:15:40;;;;;;;24.65;20.00;;;2.70;99.90;;;;;;4974298;28;20639;-72
2022/03/03 10:18:12;;;;;;;25.15;17.45;;;2.70;99.90;;;;;;4973887;28;20031;-73
2022/03/03 10:21:02;;;;;;;21.73;17.65;;;2.90;99.90;;;;;;4973864;28;20097;-73
2022/03/03 10:23:34;;;;;;;24.20;18.67;;;2.90;99.90;;;;;;4972809;28;20022;-72
2022/03/03 10:26:02;;;;;;;24.67;19.23;;;2.90;99.90;;;;;;4972657;28;20162;-72
2022/03/03 10:28:29;;;;;;;24.90;19.15;;;2.90;99.90;;;;;;4976226;28;20485;-73
2022/03/03 10:31:04;;;;;;;23.52;19.50;;;3.00;99.90;;;;;;4973676;28;20035;-73
2022/03/03 10:33:36;;;;;;;23.40;18.63;;;3.30;99.90;;;;;;4973846;28;20034;-73
2022/03/03 10:36:11;;;;;;;26.50;18.65;;;3.30;99.90;;;;;;4988841;28;20027;-73
2022/03/03 10:39:15;;;;;;;22.10;18.60;;;3.50;99.90;;;;;;4981759;28;20030;-73
2022/03/03 10:41:46;;;;;;;25.50;16.23;;;3.50;99.90;;;;;;4968809;28;20035;-73
2022/03/03 10:44:22;;;;;;;19.50;15.50;;;3.80;99.90;;;;;;4972321;28;20493;-73
2022/03/03 10:47:08;;;;;;;19.38;15.30;;;3.80;99.90;;;;;;4973454;28;20066;-72
2022/03/03 10:49:35;;;;;;;17.73;13.98;;;3.70;99.90;;;;;;4960747;28;20389;-73
2022/03/03 10:52:16;;;;;;;15.85;12.00;;;3.80;99.90;;;;;;4971443;28;20034;-72
2022/03/03 10:54:52;;;;;;;14.50;11.80;;;4.30;99.90;;;;;;4987283;28;20030;-72
2022/03/03 10:57:39;;;;;;;15.63;12.63;;;4.40;99.90;;;;;;4973313;28;20019;-72
2022/03/03 11:00:07;;;;;;;16.92;11.55;;;4.50;99.90;;;;;;4960581;28;20023;-72
2022/03/03 11:02:34;;;;;;;13.20;11.60;;;4.40;99.90;;;;;;4973148;28;20034;-73
2022/03/03 11:05:00;;;;;;;14.23;10.80;;;4.30;99.90;;;;;;4973331;28;20485;-72
2022/03/03 11:07:26;;;;;;;13.45;10.60;;;4.50;99.90;;;;;;4981269;28;20114;-72
2022/03/03 11:09:53;;;;;;;13.30;11.50;;;4.40;99.90;;;;;;4973574;28;20031;-73
2022/03/03 11:12:19;;;;;;;12.45;10.05;;;4.40;99.90;;;;;;4980754;28;20023;-73
2022/03/03 11:14:46;;;;;;;12.38;10.50;;;4.70;99.90;;;;;;4971755;28;20057;-72
2022/03/03 11:17:12;;;;;;;10.80;9.20;;;4.70;99.90;;;;;;4965967;28;20042;-72
2022/03/03 11:19:38;;;;;;;13.13;9.43;;;5.00;97.20;;;;;;4966005;28;20035;-72
2022/03/03 11:22:04;;;;;;;13.13;9.68;;;4.90;97.60;;;;;;4972953;28;20030;-72
2022/03/03 11:24:34;;;;;;;10.38;9.25;;;4.80;97.70;;;;;;4963547;28;20556;-73
2022/03/03 11:27:00;;;;;;;11.70;9.25;;;4.80;96.10;;;;;;4980665;28;20485;-72
2022/03/03 11:29:27;;;;;;;10.90;9.38;;;4.90;95.60;;;;;;4981345;28;20018;-72
2022/03/03 11:32:04;;;;;;;13.10;9.60;;;4.80;96.80;;;;;;4979867;28;20109;-72
2022/03/03 11:34:30;;;;;;;12.35;9.75;;;4.80;95.80;;;;;;5000169;28;20019;-72
2022/03/03 11:37:02;;;;;;;12.93;10.52;;;5.10;95.30;;;;;;4981947;28;20030;-72
2022/03/03 11:39:41;;;;;;;14.88;10.30;;;4.90;95.50;;;;;;4976853;28;20022;-72
2022/03/03 11:42:18;;;;;;;12.82;9.60;;;5.00;96.10;;;;;;4977893;28;20031;-72
2022/03/03 11:44:44;;;;;;;11.18;9.95;;;5.00;95.50;;;;;;4977335;28;20027;-72
2022/03/03 11:47:28;;;;;;;13.07;10.10;;;5.60;95.10;;;;;;4981937;28;20515;-73
2022/03/03 11:50:17;;;;;;;11.93;10.32;;;5.40;93.70;;;;;;4984166;28;20029;-72
2022/03/03 11:52:45;;;;;;;12.10;10.02;;;5.50;93.40;;;;;;4982154;28;20030;-72
2022/03/03 11:55:34;;;;;;;12.80;9.80;;;5.50;94.30;;;;;;4979148;28;20481;-72
2022/03/03 11:58:04;;;;;;;12.95;10.45;;;5.60;94.50;;;;;;4965356;28;20117;-72
2022/03/03 12:00:32;;;;;;;11.52;10.05;;;5.70;92.90;;;;;;4971171;28;20026;-72
2022/03/03 12:03:15;;;;;;;11.77;9.80;;;5.90;93.00;;;;;;4972607;28;20022;-71
2022/03/03 12:05:46;;;;;;;12.32;9.65;;;6.80;92.50;;;;;;4972672;28;20022;-73
2022/03/03 12:08:11;;;;;;;13.65;10.55;;;7.10;91.90;;;;;;4973296;28;20050;-73
2022/03/03 12:10:56;;;;;;;13.25;10.88;;;7.40;91.60;;;;;;4974777;28;20523;-73
2022/03/03 12:13:51;;;;;;;13.50;10.20;;;8.10;91.50;;;;;;4976291;28;20030;-73
2022/03/03 12:16:21;;;;;;;13.85;10.73;;;8.80;90.00;;;;;;4984636;28;20111;-74
2022/03/03 12:19:03;;;;;;;14.00;10.63;;;8.80;88.50;;;;;;4983086;28;20054;-74
2022/03/03 12:21:46;;;;;;;15.02;10.35;;;9.30;89.30;;;;;;4979622;28;20069;-74
2022/03/03 12:24:14;;;;;;;13.45;10.18;;;9.90;87.60;;;;;;4976053;28;20089;-74
2022/03/03 12:26:55;;;;;;;13.23;9.50;;;10.20;86.90;;;;;;4976181;28;20027;-73
2022/03/03 12:29:51;;;;;;;14.15;10.15;;;10.30;81.60;;;;;;4975911;28;20031;-74
2022/03/03 12:32:26;;;;;;;13.00;9.95;;;10.10;80.60;;;;;;4975909;28;20015;-73
2022/03/03 12:34:53;;;;;;;13.45;9.57;;;10.00;81.50;;;;;;4974621;28;20524;-74
2022/03/03 12:37:18;;;;;;;14.52;10.48;;;10.80;80.80;;;;;;4975893;28;20037;-74
2022/03/03 12:39:52;;;;;;;15.02;10.70;;;11.10;80.50;;;;;;4975871;28;20027;-74